createdAt,value
2022-09-02T00:00:46.529Z,9.33
2022-09-02T00:03:15.639Z,8.80
2022-09-02T00:05:44.158Z,9.07
2022-09-02T00:08:12.864Z,9.37
2022-09-02T00:10:45.221Z,9.23
2022-09-02T00:13:16.300Z,9.70
2022-09-02T00:15:47.187Z,9.43
2022-09-02T00:18:18.131Z,9.53
2022-09-02T00:20:49.819Z,9.20
2022-09-02T00:23:18.159Z,9.50
2022-09-02T00:25:46.616Z,9.57
2022-09-02T00:28:17.326Z,9.53
2022-09-02T00:30:50.431Z,9.43
2022-09-02T00:33:20.321Z,10.10
2022-09-02T00:35:48.876Z,9.70
2022-09-02T00:38:17.894Z,9.60
2022-09-02T00:40:49.008Z,9.80
2022-09-02T00:43:25.025Z,9.20
2022-09-02T00:45:55.935Z,10.27
2022-09-02T00:48:24.494Z,10.03
2022-09-02T00:50:53.198Z,9.20
2022-09-02T00:53:22.595Z,9.83
2022-09-02T00:55:52.246Z,10.20
2022-09-02T00:58:23.290Z,9.97
2022-09-02T01:00:57.748Z,9.50
2022-09-02T01:03:29.259Z,9.70
2022-09-02T01:05:59.320Z,10.20
2022-09-02T01:08:34.657Z,9.83
2022-09-02T01:11:06.715Z,10.03
2022-09-02T01:13:40.076Z,10.27
2022-09-02T01:16:15.928Z,10.50
2022-09-02T01:18:50.191Z,9.60
2022-09-02T01:21:18.783Z,9.67
2022-09-02T01:23:49.767Z,10.57
2022-09-02T01:26:19.541Z,9.57
2022-09-02T01:28:48.005Z,9.90
2022-09-02T01:31:16.408Z,10.13
2022-09-02T01:33:45.424Z,9.80
2022-09-02T01:36:14.575Z,9.80
2022-09-02T01:38:42.947Z,9.60
2022-09-02T01:41:13.038Z,9.40
2022-09-02T01:43:41.405Z,9.50
2022-09-02T01:46:10.301Z,9.67
2022-09-02T01:48:38.755Z,9.60
2022-09-02T01:51:07.627Z,9.23
2022-09-02T01:53:36.644Z,9.53
2022-09-02T01:56:07.548Z,9.80
2022-09-02T01:58:37.955Z,9.73
2022-09-02T02:01:06.759Z,9.67
2022-09-02T02:03:36.957Z,9.77
2022-09-02T02:06:11.254Z,10.00
2022-09-02T02:08:41.427Z,9.47
2022-09-02T02:11:11.586Z,9.83
2022-09-02T02:13:41.162Z,9.30
2022-09-02T02:16:09.584Z,8.93
2022-09-02T02:18:37.928Z,9.20
2022-09-02T02:21:06.445Z,9.60
2022-09-02T02:23:34.847Z,9.40
2022-09-02T02:26:03.166Z,9.57
2022-09-02T02:28:31.582Z,9.17
2022-09-02T02:31:01.837Z,8.97
2022-09-02T02:33:35.981Z,9.43
2022-09-02T02:36:07.960Z,9.80
2022-09-02T02:38:37.983Z,9.77
2022-09-02T02:41:07.918Z,9.50
2022-09-02T02:43:37.158Z,9.70
2022-09-02T02:46:08.471Z,8.77
2022-09-02T02:48:39.196Z,9.00
2022-09-02T02:51:08.768Z,9.00
2022-09-02T02:53:37.427Z,8.80
2022-09-02T02:56:06.385Z,9.47
2022-09-02T02:58:34.990Z,9.10
2022-09-02T03:01:04.209Z,9.10
2022-09-02T03:03:34.088Z,9.07
2022-09-02T03:06:02.936Z,8.90
2022-09-02T03:08:33.661Z,9.00
2022-09-02T03:11:03.020Z,9.20
2022-09-02T03:13:52.257Z,9.07
2022-09-02T03:16:21.101Z,8.80
2022-09-02T03:18:52.020Z,9.03
2022-09-02T03:21:20.995Z,8.30
2022-09-02T03:23:49.987Z,8.40
2022-09-02T03:26:20.197Z,8.77
2022-09-02T03:28:50.383Z,8.40
2022-09-02T03:31:22.255Z,8.87
2022-09-02T03:33:52.459Z,8.83
2022-09-02T03:36:24.424Z,8.80
2022-09-02T03:38:53.149Z,8.63
2022-09-02T03:41:22.069Z,9.87
2022-09-02T03:43:51.526Z,9.50
2022-09-02T03:46:20.318Z,9.37
2022-09-02T03:48:51.823Z,9.80
2022-09-02T03:51:23.154Z,10.43
2022-09-02T03:53:52.005Z,9.20
2022-09-02T03:56:21.356Z,9.57
2022-09-02T03:59:11.454Z,9.10
2022-09-02T04:01:40.694Z,9.27
2022-09-02T04:04:09.144Z,10.77
2022-09-02T04:06:41.068Z,10.03
2022-09-02T04:09:09.418Z,10.70
2022-09-02T04:11:42.759Z,10.33
2022-09-02T04:14:13.344Z,10.37
2022-09-02T04:16:42.290Z,10.20
2022-09-02T04:19:10.854Z,10.70
2022-09-02T04:21:43.246Z,10.40
2022-09-02T04:24:14.045Z,9.67
2022-09-02T04:26:47.013Z,10.50
2022-09-02T04:29:18.982Z,9.83
2022-09-02T04:31:49.800Z,9.90
2022-09-02T04:34:19.175Z,9.80
2022-09-02T04:36:51.061Z,10.40
2022-09-02T04:39:20.456Z,10.80
2022-09-02T04:41:48.844Z,10.73
2022-09-02T04:44:17.578Z,9.77
2022-09-02T04:46:50.416Z,9.90
2022-09-02T04:49:21.413Z,9.90
2022-09-02T04:51:55.278Z,8.83
2022-09-02T04:54:25.454Z,10.03
2022-09-02T04:56:55.715Z,10.10
2022-09-02T04:59:25.642Z,11.00
2022-09-02T05:02:15.281Z,10.43
2022-09-02T05:04:44.477Z,10.23
2022-09-02T05:07:21.874Z,10.23
2022-09-02T05:09:51.385Z,10.20
2022-09-02T05:12:20.877Z,9.80
2022-09-02T05:15:00.224Z,10.20
2022-09-02T05:17:32.004Z,10.00
2022-09-02T05:20:01.385Z,10.33
2022-09-02T05:22:32.377Z,10.43
2022-09-02T05:25:02.708Z,9.77
2022-09-02T05:27:33.229Z,10.13
2022-09-02T05:30:01.816Z,10.10
2022-09-02T05:32:37.030Z,9.67
2022-09-02T05:35:07.575Z,9.50
2022-09-02T05:37:38.523Z,12.80
2022-09-02T05:40:10.425Z,12.57
2022-09-02T05:42:43.590Z,11.30
2022-09-02T05:45:14.051Z,12.63
2022-09-02T05:47:45.618Z,11.30
2022-09-02T05:50:15.090Z,11.30
2022-09-02T05:52:51.206Z,11.87
2022-09-02T05:55:21.007Z,10.53
2022-09-02T05:57:50.515Z,11.17
2022-09-02T06:00:19.096Z,11.30
2022-09-02T06:02:56.876Z,11.20
2022-09-02T06:05:29.959Z,11.93
2022-09-02T06:08:08.747Z,10.43
2022-09-02T06:10:43.094Z,9.93
2022-09-02T06:13:15.795Z,10.90
2022-09-02T06:15:45.267Z,9.83
2022-09-02T06:18:15.646Z,10.43
2022-09-02T06:20:48.956Z,9.43
2022-09-02T06:23:19.369Z,9.70
2022-09-02T06:25:50.116Z,9.33
2022-09-02T06:28:19.735Z,10.30
2022-09-02T06:30:50.163Z,9.97
2022-09-02T06:33:23.404Z,11.20
2022-09-02T06:35:53.183Z,8.97
2022-09-02T06:38:23.194Z,10.30
2022-09-02T06:40:54.812Z,10.40
2022-09-02T06:43:39.963Z,9.50
2022-09-02T06:46:23.429Z,11.40
2022-09-02T06:48:55.353Z,9.10
2022-09-02T06:51:27.360Z,9.03
2022-09-02T06:53:59.057Z,10.80
2022-09-02T06:56:32.697Z,9.93
2022-09-02T06:59:01.629Z,9.50
2022-09-02T07:01:50.498Z,10.13
2022-09-02T07:04:39.035Z,8.83
2022-09-02T07:07:12.005Z,10.17
2022-09-02T07:09:47.670Z,9.80
2022-09-02T07:12:19.691Z,9.37
2022-09-02T07:14:53.294Z,8.70
2022-09-02T07:17:30.426Z,8.83
2022-09-02T07:20:04.774Z,8.80
2022-09-02T07:22:39.450Z,8.80
2022-09-02T07:25:12.240Z,8.50
2022-09-02T07:27:41.296Z,8.90
2022-09-02T07:30:11.317Z,8.97
2022-09-02T07:32:42.197Z,8.60
2022-09-02T07:35:11.158Z,9.07
2022-09-02T07:37:40.617Z,8.67
2022-09-02T07:40:13.651Z,8.27
2022-09-02T07:42:42.190Z,8.05
2022-09-02T07:45:11.927Z,8.18
2022-09-02T07:47:42.366Z,8.07
2022-09-02T07:50:17.244Z,8.48
2022-09-02T07:52:50.567Z,7.32
2022-09-02T07:55:21.256Z,7.35
2022-09-02T07:57:50.052Z,7.70
2022-09-02T08:00:23.117Z,8.23
2022-09-02T08:02:53.391Z,7.90
2022-09-02T08:05:29.324Z,8.02
2022-09-02T08:07:57.730Z,8.00
2022-09-02T08:10:29.530Z,8.48
2022-09-02T08:13:00.325Z,8.25
2022-09-02T08:15:30.485Z,7.60
2022-09-02T08:17:59.672Z,7.97
2022-09-02T08:20:30.465Z,7.30
2022-09-02T08:23:10.751Z,8.05
2022-09-02T08:25:42.521Z,7.78
2022-09-02T08:28:11.357Z,7.88
2022-09-02T08:30:40.209Z,7.00
2022-09-02T08:33:08.478Z,7.80
2022-09-02T08:35:36.996Z,7.43
2022-09-02T08:38:05.904Z,7.10
2022-09-02T08:40:38.593Z,7.63
2022-09-02T08:43:22.139Z,7.47
2022-09-02T08:45:54.340Z,7.97
2022-09-02T08:48:29.748Z,7.88
2022-09-02T08:51:04.545Z,7.57
2022-09-02T08:53:37.577Z,7.40
2022-09-02T08:56:09.736Z,7.68
2022-09-02T08:58:42.278Z,7.50
2022-09-02T09:01:20.459Z,7.30
2022-09-02T09:04:06.405Z,7.50
2022-09-02T09:06:47.597Z,8.13
2022-09-02T09:09:23.491Z,8.32
2022-09-02T09:12:00.692Z,7.90
2022-09-02T09:14:36.356Z,7.72
2022-09-02T09:17:13.066Z,8.00
2022-09-02T09:19:52.003Z,7.72
2022-09-02T09:22:23.157Z,7.82
2022-09-02T09:24:52.356Z,7.60
2022-09-02T09:27:22.645Z,7.70
2022-09-02T09:29:53.875Z,7.13
2022-09-02T09:32:28.645Z,7.20
2022-09-02T09:35:01.734Z,7.30
2022-09-02T09:37:36.620Z,7.43
2022-09-02T09:40:25.240Z,7.43
2022-09-02T09:42:57.562Z,7.07
2022-09-02T09:45:33.610Z,6.88
2022-09-02T09:48:22.890Z,7.38
2022-09-02T09:51:12.488Z,7.25
2022-09-02T09:53:41.461Z,7.75
2022-09-02T09:56:32.332Z,7.65
2022-09-02T09:59:10.469Z,7.55
2022-09-02T10:01:40.150Z,7.85
2022-09-02T10:04:42.268Z,7.38
2022-09-02T10:07:00.624Z,8.00
2022-09-02T10:09:35.216Z,7.63
2022-09-02T10:12:06.196Z,7.80
2022-09-02T10:14:37.507Z,7.43
2022-09-02T10:17:22.966Z,7.90
2022-09-02T10:19:56.545Z,7.72
2022-09-02T10:22:59.756Z,7.40
2022-09-02T10:25:38.455Z,7.53
2022-09-02T10:28:19.435Z,7.00
2022-09-02T10:30:56.502Z,7.38
2022-09-02T10:33:37.612Z,7.50
2022-09-02T10:36:18.116Z,7.10
2022-09-02T10:38:50.674Z,7.18
2022-09-02T10:41:34.880Z,7.50
2022-09-02T10:44:27.834Z,7.10
2022-09-02T10:47:02.367Z,7.80
2022-09-02T10:49:55.176Z,7.63
2022-09-02T10:52:45.369Z,7.70
2022-09-02T10:55:21.855Z,7.20
2022-09-02T10:57:55.182Z,7.70
2022-09-02T11:00:25.006Z,6.93
2022-09-02T11:02:56.612Z,7.07
2022-09-02T11:05:29.340Z,7.60
2022-09-02T11:08:05.086Z,7.70
2022-09-02T11:10:39.203Z,7.75
2022-09-02T11:13:14.597Z,7.70
2022-09-02T11:15:48.676Z,7.80
2022-09-02T11:18:23.805Z,8.07
2022-09-02T11:21:04.528Z,8.00
2022-09-02T11:23:41.580Z,7.78
2022-09-02T11:26:17.343Z,8.00
2022-09-02T11:28:54.188Z,7.53
2022-09-02T11:31:32.837Z,7.78
2022-09-02T11:34:06.540Z,7.45
2022-09-02T11:36:41.014Z,7.65
2022-09-02T11:39:21.762Z,7.70
2022-09-02T11:42:24.106Z,7.93
2022-09-02T11:45:10.622Z,7.80
2022-09-02T11:48:02.336Z,6.90
2022-09-02T11:51:00.045Z,7.65
2022-09-02T11:53:32.168Z,7.30
2022-09-02T11:56:05.276Z,7.15
2022-09-02T11:58:39.539Z,7.80
2022-09-02T12:01:34.835Z,8.02
2022-09-02T12:04:48.558Z,7.95
2022-09-02T12:07:29.741Z,8.00
2022-09-02T12:10:02.755Z,7.70
2022-09-02T12:13:08.510Z,8.15
2022-09-02T12:15:40.645Z,8.00
2022-09-02T12:18:15.079Z,7.85
2022-09-02T12:21:16.429Z,7.78
2022-09-02T12:24:22.264Z,7.90
2022-09-02T12:27:34.374Z,7.75
2022-09-02T12:30:02.707Z,7.95
2022-09-02T12:33:05.577Z,9.20
2022-09-02T12:35:52.836Z,8.35
2022-09-02T12:38:40.068Z,8.45
2022-09-02T12:41:27.700Z,8.30
2022-09-02T12:44:31.415Z,7.80
2022-09-02T12:47:06.348Z,8.45
2022-09-02T12:49:51.655Z,8.25
2022-09-02T12:52:43.868Z,8.68
2022-09-02T12:55:17.314Z,8.00
2022-09-02T12:57:49.785Z,8.02
2022-09-02T13:00:28.686Z,7.85
2022-09-02T13:03:09.618Z,8.20
2022-09-02T13:05:53.334Z,8.18
2022-09-02T13:09:16.437Z,8.60
2022-09-02T13:12:30.193Z,8.10
2022-09-02T13:15:23.866Z,7.90
2022-09-02T13:18:30.006Z,8.10
2022-09-02T13:21:35.828Z,8.38
2022-09-02T13:24:52.204Z,8.07
2022-09-02T13:27:53.237Z,7.80
2022-09-02T13:30:32.319Z,8.32
2022-09-02T13:33:07.468Z,8.18
2022-09-02T13:35:40.453Z,8.35
2022-09-02T13:38:12.316Z,8.30
2022-09-02T13:40:43.813Z,8.20
2022-09-02T13:43:19.827Z,7.68
2022-09-02T13:45:51.054Z,8.10
2022-09-02T13:48:21.724Z,7.80
2022-09-02T13:50:51.644Z,8.00
2022-09-02T13:53:53.895Z,8.00
2022-09-02T13:56:17.579Z,9.73
2022-09-02T13:58:48.913Z,9.35
2022-09-02T14:01:29.086Z,9.05
2022-09-02T14:04:00.112Z,8.80
2022-09-02T14:06:33.208Z,8.20
2022-09-02T14:09:03.979Z,8.65
2022-09-02T14:11:39.451Z,8.50
2022-09-02T14:14:08.948Z,8.30
2022-09-02T14:16:38.667Z,8.02
2022-09-02T14:19:14.480Z,8.50
2022-09-02T14:21:48.388Z,7.90
2022-09-02T14:24:19.819Z,8.15
2022-09-02T14:26:50.949Z,9.20
2022-09-02T14:29:21.236Z,8.77
2022-09-02T14:32:10.463Z,8.93
2022-09-02T14:34:40.429Z,8.70
2022-09-02T14:37:24.291Z,9.23
2022-09-02T14:40:07.453Z,8.75
2022-09-02T14:42:43.804Z,8.68
2022-09-02T14:45:13.275Z,9.00
2022-09-02T14:47:43.627Z,9.60
2022-09-02T14:50:15.511Z,9.90
2022-09-02T14:52:49.674Z,9.13
2022-09-02T14:55:46.793Z,9.45
2022-09-02T14:58:16.274Z,9.50
2022-09-02T15:00:47.437Z,9.70
2022-09-02T15:03:17.818Z,8.65
2022-09-02T15:05:46.655Z,8.82
2022-09-02T15:08:16.074Z,8.80
2022-09-02T15:10:45.823Z,8.63
2022-09-02T15:13:20.146Z,8.07
2022-09-02T15:15:50.464Z,8.07
2022-09-02T15:18:20.276Z,8.00
2022-09-02T15:20:48.685Z,8.38
2022-09-02T15:23:17.244Z,8.13
2022-09-02T15:25:45.599Z,8.25
2022-09-02T15:28:14.349Z,7.70
2022-09-02T15:30:42.700Z,7.90
2022-09-02T15:33:16.675Z,8.02
2022-09-02T15:35:47.820Z,8.38
2022-09-02T15:38:17.146Z,8.30
2022-09-02T15:40:46.097Z,9.25
2022-09-02T15:43:16.271Z,7.65
2022-09-02T15:45:48.052Z,8.30
2022-09-02T15:48:16.913Z,8.30
2022-09-02T15:50:46.630Z,8.20
2022-09-02T15:53:17.366Z,9.05
2022-09-02T15:55:45.656Z,8.35
2022-09-02T15:58:13.947Z,8.30
2022-09-02T16:00:43.921Z,7.93
2022-09-02T16:03:12.391Z,9.00
2022-09-02T16:05:43.242Z,8.27
2022-09-02T16:08:11.602Z,8.25
2022-09-02T16:10:41.346Z,8.60
2022-09-02T16:13:10.045Z,7.97
2022-09-02T16:15:38.381Z,8.30
2022-09-02T16:18:06.804Z,8.35
2022-09-02T16:20:35.072Z,8.63
2022-09-02T16:23:03.578Z,7.95
2022-09-02T16:25:31.974Z,7.93
2022-09-02T16:28:02.149Z,8.40
2022-09-02T16:30:31.067Z,8.30
2022-09-02T16:33:00.041Z,8.20
2022-09-02T16:35:28.381Z,8.55
2022-09-02T16:37:57.501Z,8.50
2022-09-02T16:40:25.842Z,7.75
2022-09-02T16:42:54.094Z,8.25
2022-09-02T16:45:23.766Z,8.50
2022-09-02T16:47:52.074Z,8.10
2022-09-02T16:50:20.348Z,8.60
2022-09-02T16:52:48.640Z,8.45
2022-09-02T16:55:18.785Z,8.18
2022-09-02T16:57:47.134Z,8.40
2022-09-02T17:00:16.988Z,8.80
2022-09-02T17:02:46.678Z,7.70
2022-09-02T17:05:17.503Z,8.40
2022-09-02T17:07:46.801Z,7.57
2022-09-02T17:10:15.377Z,8.27
2022-09-02T17:12:43.727Z,7.60
2022-09-02T17:15:12.415Z,8.87
2022-09-02T17:17:42.345Z,8.70
2022-09-02T17:20:13.224Z,8.90
2022-09-02T17:22:41.924Z,9.07
2022-09-02T17:25:11.005Z,9.10
2022-09-02T17:27:40.124Z,9.70
2022-09-02T17:30:10.877Z,8.75
2022-09-02T17:32:39.547Z,9.70
2022-09-02T17:35:12.201Z,10.20
2022-09-02T17:37:41.136Z,9.80
2022-09-02T17:40:34.098Z,10.50
2022-09-02T17:43:02.754Z,10.40
2022-09-02T17:45:31.177Z,10.83
2022-09-02T17:48:19.004Z,11.43
2022-09-02T17:50:49.047Z,11.10
2022-09-02T17:53:19.156Z,11.90
2022-09-02T17:55:50.031Z,10.90
2022-09-02T17:58:21.613Z,11.30
2022-09-02T18:00:54.743Z,10.70
2022-09-02T18:03:40.529Z,11.10
2022-09-02T18:06:16.237Z,10.90
2022-09-02T18:08:52.916Z,10.47
2022-09-02T18:11:23.215Z,10.33
2022-09-02T18:13:57.428Z,11.10
2022-09-02T18:16:33.489Z,11.63
2022-09-02T18:19:13.838Z,12.03
2022-09-02T18:22:08.299Z,12.13
2022-09-02T18:24:56.428Z,11.83
2022-09-02T18:27:37.900Z,11.27
2022-09-02T18:30:09.188Z,10.90
2022-09-02T18:33:11.294Z,11.00
2022-09-02T18:35:50.671Z,11.83
2022-09-02T18:38:29.814Z,11.33
2022-09-02T18:41:13.846Z,11.60
2022-09-02T18:43:57.346Z,11.00
2022-09-02T18:46:29.023Z,11.20
2022-09-02T18:49:00.515Z,11.67
2022-09-02T18:51:35.711Z,11.50
2022-09-02T18:54:14.369Z,12.27
2022-09-02T18:56:49.979Z,11.20
2022-09-02T18:59:28.618Z,11.80
2022-09-02T19:02:02.044Z,11.40
2022-09-02T19:04:34.322Z,12.20
2022-09-02T19:07:16.828Z,11.07
2022-09-02T19:09:46.578Z,11.07
2022-09-02T19:12:14.840Z,10.83
2022-09-02T19:14:43.293Z,11.00
2022-09-02T19:17:12.622Z,11.40
2022-09-02T19:19:40.976Z,11.50
2022-09-02T19:22:11.827Z,10.80
2022-09-02T19:24:44.005Z,10.97
2022-09-02T19:27:16.557Z,10.90
2022-09-02T19:29:51.379Z,10.80
2022-09-02T19:32:24.034Z,10.43
2022-09-02T19:34:52.727Z,11.37
2022-09-02T19:37:21.407Z,10.70
2022-09-02T19:39:54.224Z,10.83
2022-09-02T19:42:24.460Z,12.20
2022-09-02T19:44:52.779Z,11.27
2022-09-02T19:48:04.982Z,11.97
2022-09-02T19:50:09.997Z,11.00
2022-09-02T19:52:42.007Z,11.03
2022-09-02T19:55:11.709Z,12.47
2022-09-02T19:57:41.544Z,11.23
2022-09-02T20:00:11.519Z,11.17
2022-09-02T20:02:41.167Z,11.20
2022-09-02T20:05:10.866Z,11.30
2022-09-02T20:07:39.807Z,11.60
2022-09-02T20:10:09.667Z,11.70
2022-09-02T20:12:38.073Z,11.83
2022-09-02T20:15:08.322Z,10.53
2022-09-02T20:17:37.097Z,10.63
2022-09-02T20:20:10.026Z,11.10
2022-09-02T20:22:38.317Z,11.70
2022-09-02T20:25:07.127Z,10.53
2022-09-02T20:27:50.527Z,10.20
2022-09-02T20:30:21.232Z,9.90
2022-09-02T20:32:58.227Z,9.47
2022-09-02T20:35:53.918Z,10.80
2022-09-02T20:39:09.884Z,10.93
2022-09-02T20:41:46.603Z,10.80
2022-09-02T20:44:38.518Z,11.20
2022-09-02T20:47:29.604Z,11.30
2022-09-02T20:50:38.923Z,11.00
2022-09-02T20:53:25.203Z,10.93
2022-09-02T20:56:02.993Z,11.70
2022-09-02T20:58:41.685Z,11.57
2022-09-02T21:01:12.733Z,11.40
2022-09-02T21:03:53.037Z,11.10
2022-09-02T21:06:26.757Z,11.60
2022-09-02T21:09:03.958Z,11.40
2022-09-02T21:11:43.287Z,11.83
2022-09-02T21:14:17.239Z,11.20
2022-09-02T21:16:51.002Z,11.90
2022-09-02T21:19:28.836Z,12.10
2022-09-02T21:22:04.401Z,11.83
2022-09-02T21:24:39.128Z,12.33
2022-09-02T21:27:15.714Z,11.20
2022-09-02T21:29:48.865Z,12.13
2022-09-02T21:32:23.857Z,11.77
2022-09-02T21:34:59.176Z,11.67
2022-09-02T21:37:31.873Z,12.07
2022-09-02T21:40:06.828Z,11.63
2022-09-02T21:42:53.794Z,12.27
2022-09-02T21:45:28.369Z,11.70
2022-09-02T21:48:07.049Z,11.57
2022-09-02T21:50:46.676Z,11.90
2022-09-02T21:53:24.202Z,12.10
2022-09-02T21:56:01.848Z,11.93
2022-09-02T21:58:48.676Z,12.50
2022-09-02T22:01:35.413Z,12.67
2022-09-02T22:04:12.185Z,12.50
2022-09-02T22:06:46.098Z,12.60
2022-09-02T22:09:18.089Z,12.37
2022-09-02T22:11:54.392Z,11.83
2022-09-02T22:14:31.708Z,12.33
2022-09-02T22:17:05.829Z,11.90
2022-09-02T22:19:39.166Z,12.30
2022-09-02T22:22:12.970Z,12.33
2022-09-02T22:24:41.295Z,11.73
2022-09-02T22:27:15.068Z,11.77
2022-09-02T22:29:49.287Z,12.33
2022-09-02T22:32:20.749Z,11.70
2022-09-02T22:34:58.355Z,11.70
2022-09-02T22:37:39.310Z,12.33
2022-09-02T22:40:11.618Z,11.63
2022-09-02T22:42:41.727Z,11.90
2022-09-02T22:45:30.936Z,12.07
2022-09-02T22:48:21.423Z,12.23
2022-09-02T22:51:18.847Z,12.40
2022-09-02T22:53:50.775Z,12.53
2022-09-02T22:56:27.321Z,12.00
2022-09-02T22:59:18.310Z,12.30
2022-09-02T23:01:56.873Z,11.93
2022-09-02T23:04:40.179Z,12.47
2022-09-02T23:07:09.567Z,12.60
2022-09-02T23:09:39.517Z,12.73
2022-09-02T23:12:17.198Z,13.73
2022-09-02T23:14:53.457Z,13.80
2022-09-02T23:17:36.639Z,13.87
2022-09-02T23:20:12.661Z,12.73
2022-09-02T23:22:56.875Z,12.50
2022-09-02T23:25:43.687Z,12.77
2022-09-02T23:28:16.865Z,13.77
2022-09-02T23:31:01.223Z,13.60
2022-09-02T23:33:44.230Z,13.30
2022-09-02T23:36:20.205Z,12.07
2022-09-02T23:39:02.846Z,12.87
2022-09-02T23:41:36.197Z,12.93
2022-09-02T23:44:07.367Z,13.43
2022-09-02T23:46:52.140Z,13.23
2022-09-02T23:49:32.648Z,14.17
2022-09-02T23:52:10.345Z,12.80
2022-09-02T23:55:00.149Z,13.30
2022-09-02T23:57:53.675Z,13.20
